Gurn Spring, New York
Current Conditions -  °F | °C
As of 3:53 AM on Thursday 23 Oct 2014 (Local Time) from KGFL Reporting Station
Light Rain Light Rain  
Wind Chill: 44°   Ceiling: 2800
Heat Index: 49°   Visibility: 10mi
Dew Point: 43°   Wind: 14mph
Humidity: 80%   Direction: 20°NNE
Pressure: 29.91"   Gusts: NA
Location:  43.1979°N, 73.6839°W
Report Text: KGFL 230753Z AUTO 02012KT 10SM -RA OVC028 09/06 A2991 RMK AO2 RAB11 SLP133 P0002 T00940061
Loading
Personal Weather Stations






























Interactive Weather Map New forecast layout! Learn more

10-Day Weather Forecast

Advertisements
Track Severe Weather on mobile